sensor_id;sensor_type;location;lat;lon;timestamp;P1;durP1;ratioP1;P2;durP2;ratioP2
33644;SDS011;19986;48.190;16.366;2023-05-08T00:00:25;49.90;;;47.00;;
33644;SDS011;19986;48.190;16.366;2023-05-08T00:02:51;47.22;;;44.50;;
33644;SDS011;19986;48.190;16.366;2023-05-08T00:05:17;51.08;;;48.10;;
33644;SDS011;19986;48.190;16.366;2023-05-08T00:07:43;51.65;;;48.75;;
33644;SDS011;19986;48.190;16.366;2023-05-08T00:10:09;48.85;;;46.05;;
33644;SDS011;19986;48.190;16.366;2023-05-08T00:12:35;50.78;;;47.63;;
33644;SDS011;19986;48.190;16.366;2023-05-08T00:15:01;49.40;;;46.30;;
33644;SDS011;19986;48.190;16.366;2023-05-08T00:17:28;48.75;;;45.92;;
33644;SDS011;19986;48.190;16.366;2023-05-08T00:19:54;49.65;;;46.80;;
33644;SDS011;19986;48.190;16.366;2023-05-08T00:22:20;50.30;;;47.20;;
33644;SDS011;19986;48.190;16.366;2023-05-08T00:24:46;48.20;;;45.42;;
33644;SDS011;19986;48.190;16.366;2023-05-08T00:27:12;47.75;;;44.95;;
33644;SDS011;19986;48.190;16.366;2023-05-08T00:29:38;46.97;;;44.38;;
33644;SDS011;19986;48.190;16.366;2023-05-08T00:32:07;47.58;;;44.78;;
33644;SDS011;19986;48.190;16.366;2023-05-08T00:34:34;47.30;;;44.70;;
33644;SDS011;19986;48.190;16.366;2023-05-08T00:37:00;46.30;;;43.67;;
33644;SDS011;19986;48.190;16.366;2023-05-08T00:39:27;48.33;;;45.63;;
33644;SDS011;19986;48.190;16.366;2023-05-08T00:41:53;49.58;;;46.78;;
33644;SDS011;19986;48.190;16.366;2023-05-08T00:44:19;48.70;;;46.00;;
33644;SDS011;19986;48.190;16.366;2023-05-08T00:46:46;49.65;;;46.85;;
33644;SDS011;19986;48.190;16.366;2023-05-08T00:49:12;48.00;;;45.30;;
33644;SDS011;19986;48.190;16.366;2023-05-08T00:51:40;49.42;;;46.58;;
33644;SDS011;19986;48.190;16.366;2023-05-08T00:54:08;47.67;;;45.00;;
33644;SDS011;19986;48.190;16.366;2023-05-08T00:56:35;48.30;;;45.60;;
33644;SDS011;19986;48.190;16.366;2023-05-08T00:59:02;47.72;;;45.03;;
33644;SDS011;19986;48.190;16.366;2023-05-08T01:01:31;47.78;;;45.08;;
33644;SDS011;19986;48.190;16.366;2023-05-08T01:04:01;49.33;;;46.55;;
33644;SDS011;19986;48.190;16.366;2023-05-08T01:06:28;48.03;;;45.33;;
33644;SDS011;19986;48.190;16.366;2023-05-08T01:08:53;48.67;;;45.67;;
33644;SDS011;19986;48.190;16.366;2023-05-08T01:11:24;47.80;;;44.80;;
33644;SDS011;19986;48.190;16.366;2023-05-08T01:16:35;49.88;;;46.97;;
33644;SDS011;19986;48.190;16.366;2023-05-08T01:36:59;50.25;;;47.45;;
33644;SDS011;19986;48.190;16.366;2023-05-08T01:42:23;50.08;;;47.25;;
33644;SDS011;19986;48.190;16.366;2023-05-08T01:44:53;49.10;;;46.20;;
33644;SDS011;19986;48.190;16.366;2023-05-08T01:47:24;50.92;;;47.92;;
33644;SDS011;19986;48.190;16.366;2023-05-08T01:49:59;51.40;;;48.22;;
33644;SDS011;19986;48.190;16.366;2023-05-08T01:52:35;51.50;;;48.53;;
33644;SDS011;19986;48.190;16.366;2023-05-08T01:55:08;52.25;;;49.22;;
33644;SDS011;19986;48.190;16.366;2023-05-08T01:57:37;49.13;;;46.28;;
33644;SDS011;19986;48.190;16.366;2023-05-08T02:00:10;51.20;;;48.10;;
33644;SDS011;19986;48.190;16.366;2023-05-08T02:02:37;51.15;;;48.15;;
33644;SDS011;19986;48.190;16.366;2023-05-08T02:05:03;48.75;;;46.00;;
33644;SDS011;19986;48.190;16.366;2023-05-08T02:07:31;48.92;;;46.08;;
33644;SDS011;19986;48.190;16.366;2023-05-08T02:10:02;51.28;;;48.20;;
33644;SDS011;19986;48.190;16.366;2023-05-08T02:12:29;50.47;;;47.53;;
33644;SDS011;19986;48.190;16.366;2023-05-08T02:14:56;53.22;;;49.97;;
33644;SDS011;19986;48.190;16.366;2023-05-08T02:17:25;51.63;;;48.63;;
33644;SDS011;19986;48.190;16.366;2023-05-08T02:19:52;49.67;;;46.65;;
33644;SDS011;19986;48.190;16.366;2023-05-08T02:22:21;50.85;;;47.85;;
33644;SDS011;19986;48.190;16.366;2023-05-08T02:24:48;48.63;;;45.75;;
33644;SDS011;19986;48.190;16.366;2023-05-08T02:27:22;48.78;;;45.70;;
33644;SDS011;19986;48.190;16.366;2023-05-08T02:29:52;48.15;;;45.28;;
33644;SDS011;19986;48.190;16.366;2023-05-08T02:32:20;48.78;;;45.65;;
33644;SDS011;19986;48.190;16.366;2023-05-08T02:34:49;49.75;;;46.85;;
33644;SDS011;19986;48.190;16.366;2023-05-08T02:37:17;50.00;;;46.85;;
33644;SDS011;19986;48.190;16.366;2023-05-08T02:39:46;46.35;;;43.67;;
33644;SDS011;19986;48.190;16.366;2023-05-08T02:42:14;50.13;;;47.30;;
33644;SDS011;19986;48.190;16.366;2023-05-08T02:44:40;51.00;;;47.78;;
33644;SDS011;19986;48.190;16.366;2023-05-08T02:49:47;51.60;;;48.63;;
33644;SDS011;19986;48.190;16.366;2023-05-08T03:00:11;45.28;;;42.67;;
33644;SDS011;19986;48.190;16.366;2023-05-08T03:02:42;48.28;;;45.55;;
33644;SDS011;19986;48.190;16.366;2023-05-08T03:05:49;49.80;;;46.90;;
33644;SDS011;19986;48.190;16.366;2023-05-08T03:08:13;47.33;;;44.72;;
33644;SDS011;19986;48.190;16.366;2023-05-08T03:10:40;48.42;;;45.53;;
33644;SDS011;19986;48.190;16.366;2023-05-08T03:13:10;47.17;;;44.28;;
33644;SDS011;19986;48.190;16.366;2023-05-08T03:15:45;50.05;;;47.08;;
33644;SDS011;19986;48.190;16.366;2023-05-08T03:18:19;48.10;;;45.30;;
33644;SDS011;19986;48.190;16.366;2023-05-08T03:20:48;47.95;;;45.25;;
33644;SDS011;19986;48.190;16.366;2023-05-08T03:23:18;48.67;;;45.88;;
33644;SDS011;19986;48.190;16.366;2023-05-08T03:25:46;48.40;;;45.63;;
33644;SDS011;19986;48.190;16.366;2023-05-08T03:28:12;47.55;;;44.85;;
33644;SDS011;19986;48.190;16.366;2023-05-08T03:30:40;48.65;;;45.80;;
33644;SDS011;19986;48.190;16.366;2023-05-08T03:33:07;48.00;;;45.10;;
33644;SDS011;19986;48.190;16.366;2023-05-08T03:35:36;47.58;;;44.58;;
33644;SDS011;19986;48.190;16.366;2023-05-08T03:38:03;47.00;;;44.50;;
33644;SDS011;19986;48.190;16.366;2023-05-08T03:40:31;47.08;;;44.45;;
33644;SDS011;19986;48.190;16.366;2023-05-08T03:43:04;47.50;;;44.90;;
33644;SDS011;19986;48.190;16.366;2023-05-08T03:45:36;45.97;;;43.47;;
33644;SDS011;19986;48.190;16.366;2023-05-08T03:48:08;49.28;;;46.40;;
33644;SDS011;19986;48.190;16.366;2023-05-08T03:50:35;48.17;;;45.53;;
33644;SDS011;19986;48.190;16.366;2023-05-08T03:53:02;51.00;;;48.25;;
33644;SDS011;19986;48.190;16.366;2023-05-08T03:55:31;49.25;;;46.45;;
33644;SDS011;19986;48.190;16.366;2023-05-08T03:58:09;49.50;;;46.55;;
33644;SDS011;19986;48.190;16.366;2023-05-08T04:00:47;47.20;;;44.40;;
33644;SDS011;19986;48.190;16.366;2023-05-08T04:06:13;48.03;;;45.35;;
33644;SDS011;19986;48.190;16.366;2023-05-08T04:08:41;50.05;;;47.15;;
33644;SDS011;19986;48.190;16.366;2023-05-08T04:13:47;48.95;;;46.05;;
33644;SDS011;19986;48.190;16.366;2023-05-08T04:16:20;48.47;;;45.70;;
33644;SDS011;19986;48.190;16.366;2023-05-08T04:18:51;49.80;;;47.00;;
33644;SDS011;19986;48.190;16.366;2023-05-08T04:21:22;48.05;;;45.35;;
33644;SDS011;19986;48.190;16.366;2023-05-08T04:23:50;51.72;;;48.72;;
33644;SDS011;19986;48.190;16.366;2023-05-08T04:26:17;45.55;;;42.92;;
33644;SDS011;19986;48.190;16.366;2023-05-08T04:28:43;49.65;;;46.67;;
33644;SDS011;19986;48.190;16.366;2023-05-08T04:31:12;49.22;;;46.13;;
33644;SDS011;19986;48.190;16.366;2023-05-08T04:33:45;46.78;;;44.05;;
33644;SDS011;19986;48.190;16.366;2023-05-08T04:36:12;49.17;;;46.17;;
33644;SDS011;19986;48.190;16.366;2023-05-08T04:38:39;48.47;;;45.58;;
33644;SDS011;19986;48.190;16.366;2023-05-08T04:41:05;48.22;;;45.50;;
33644;SDS011;19986;48.190;16.366;2023-05-08T04:43:32;48.95;;;46.05;;
33644;SDS011;19986;48.190;16.366;2023-05-08T04:45:58;49.10;;;46.22;;
33644;SDS011;19986;48.190;16.366;2023-05-08T04:48:24;50.92;;;48.03;;
33644;SDS011;19986;48.190;16.366;2023-05-08T04:50:51;45.83;;;43.08;;
33644;SDS011;19986;48.190;16.366;2023-05-08T04:53:16;49.60;;;46.47;;
33644;SDS011;19986;48.190;16.366;2023-05-08T04:55:42;49.45;;;46.75;;
33644;SDS011;19986;48.190;16.366;2023-05-08T04:58:11;46.42;;;43.83;;
33644;SDS011;19986;48.190;16.366;2023-05-08T05:00:36;49.20;;;46.10;;
33644;SDS011;19986;48.190;16.366;2023-05-08T05:03:02;49.78;;;46.97;;
33644;SDS011;19986;48.190;16.366;2023-05-08T05:05:28;50.42;;;47.63;;
33644;SDS011;19986;48.190;16.366;2023-05-08T05:07:54;47.40;;;44.70;;
33644;SDS011;19986;48.190;16.366;2023-05-08T05:10:20;49.80;;;46.90;;
33644;SDS011;19986;48.190;16.366;2023-05-08T05:12:45;46.45;;;43.75;;
33644;SDS011;19986;48.190;16.366;2023-05-08T05:15:11;47.92;;;45.13;;
33644;SDS011;19986;48.190;16.366;2023-05-08T05:17:37;47.10;;;44.42;;
33644;SDS011;19986;48.190;16.366;2023-05-08T05:20:03;47.28;;;44.55;;
33644;SDS011;19986;48.190;16.366;2023-05-08T05:22:33;47.35;;;44.75;;
33644;SDS011;19986;48.190;16.366;2023-05-08T05:24:59;46.03;;;43.35;;
33644;SDS011;19986;48.190;16.366;2023-05-08T05:27:24;48.20;;;45.35;;
33644;SDS011;19986;48.190;16.366;2023-05-08T05:29:50;47.33;;;44.58;;
33644;SDS011;19986;48.190;16.366;2023-05-08T05:32:16;47.67;;;45.03;;
33644;SDS011;19986;48.190;16.366;2023-05-08T05:34:42;48.08;;;45.35;;
33644;SDS011;19986;48.190;16.366;2023-05-08T05:37:11;48.33;;;45.72;;
33644;SDS011;19986;48.190;16.366;2023-05-08T05:39:37;47.50;;;44.90;;
33644;SDS011;19986;48.190;16.366;2023-05-08T05:42:02;47.75;;;45.05;;
33644;SDS011;19986;48.190;16.366;2023-05-08T05:44:28;48.42;;;45.58;;
33644;SDS011;19986;48.190;16.366;2023-05-08T05:46:54;45.78;;;42.88;;
33644;SDS011;19986;48.190;16.366;2023-05-08T05:49:20;45.75;;;43.20;;
33644;SDS011;19986;48.190;16.366;2023-05-08T05:51:47;44.75;;;42.25;;
33644;SDS011;19986;48.190;16.366;2023-05-08T05:54:12;45.80;;;43.25;;
33644;SDS011;19986;48.190;16.366;2023-05-08T05:56:38;46.35;;;43.83;;
33644;SDS011;19986;48.190;16.366;2023-05-08T05:59:04;46.10;;;43.47;;
33644;SDS011;19986;48.190;16.366;2023-05-08T06:01:30;43.72;;;41.38;;
33644;SDS011;19986;48.190;16.366;2023-05-08T06:03:56;47.28;;;44.72;;
33644;SDS011;19986;48.190;16.366;2023-05-08T06:06:22;45.35;;;42.85;;
33644;SDS011;19986;48.190;16.366;2023-05-08T06:08:49;44.22;;;41.92;;
33644;SDS011;19986;48.190;16.366;2023-05-08T06:11:15;44.60;;;42.20;;
33644;SDS011;19986;48.190;16.366;2023-05-08T06:13:41;44.63;;;42.15;;
33644;SDS011;19986;48.190;16.366;2023-05-08T06:16:08;43.50;;;41.20;;
33644;SDS011;19986;48.190;16.366;2023-05-08T06:18:33;45.85;;;43.35;;
33644;SDS011;19986;48.190;16.366;2023-05-08T06:20:59;44.70;;;42.33;;
33644;SDS011;19986;48.190;16.366;2023-05-08T06:23:25;44.75;;;42.35;;
33644;SDS011;19986;48.190;16.366;2023-05-08T06:25:51;44.65;;;42.25;;
33644;SDS011;19986;48.190;16.366;2023-05-08T06:28:18;45.08;;;42.58;;
33644;SDS011;19986;48.190;16.366;2023-05-08T06:30:44;43.85;;;41.50;;
33644;SDS011;19986;48.190;16.366;2023-05-08T06:33:10;42.55;;;39.80;;
33644;SDS011;19986;48.190;16.366;2023-05-08T06:35:36;43.65;;;41.35;;
33644;SDS011;19986;48.190;16.366;2023-05-08T06:38:02;40.50;;;38.33;;
33644;SDS011;19986;48.190;16.366;2023-05-08T06:40:28;42.60;;;40.20;;
33644;SDS011;19986;48.190;16.366;2023-05-08T06:42:54;42.58;;;40.38;;
33644;SDS011;19986;48.190;16.366;2023-05-08T06:45:19;42.42;;;40.22;;
33644;SDS011;19986;48.190;16.366;2023-05-08T06:47:45;42.22;;;40.03;;
33644;SDS011;19986;48.190;16.366;2023-05-08T06:50:11;40.97;;;38.80;;
33644;SDS011;19986;48.190;16.366;2023-05-08T06:52:37;39.90;;;37.67;;
33644;SDS011;19986;48.190;16.366;2023-05-08T06:55:03;42.83;;;40.47;;
33644;SDS011;19986;48.190;16.366;2023-05-08T06:57:29;43.97;;;41.67;;
33644;SDS011;19986;48.190;16.366;2023-05-08T06:59:55;41.30;;;39.08;;
33644;SDS011;19986;48.190;16.366;2023-05-08T07:02:21;42.10;;;39.80;;
33644;SDS011;19986;48.190;16.366;2023-05-08T07:04:47;43.30;;;41.00;;
33644;SDS011;19986;48.190;16.366;2023-05-08T07:07:13;40.45;;;38.33;;
33644;SDS011;19986;48.190;16.366;2023-05-08T07:09:39;41.72;;;39.63;;
33644;SDS011;19986;48.190;16.366;2023-05-08T07:12:05;42.42;;;40.03;;
33644;SDS011;19986;48.190;16.366;2023-05-08T07:14:31;39.42;;;37.20;;
33644;SDS011;19986;48.190;16.366;2023-05-08T07:16:57;41.47;;;39.17;;
33644;SDS011;19986;48.190;16.366;2023-05-08T07:19:23;41.35;;;39.15;;
33644;SDS011;19986;48.190;16.366;2023-05-08T07:21:49;41.53;;;39.33;;
33644;SDS011;19986;48.190;16.366;2023-05-08T07:24:15;42.75;;;40.35;;
33644;SDS011;19986;48.190;16.366;2023-05-08T07:26:41;41.30;;;39.10;;
33644;SDS011;19986;48.190;16.366;2023-05-08T07:29:06;39.80;;;37.60;;
33644;SDS011;19986;48.190;16.366;2023-05-08T07:31:33;42.70;;;40.47;;
33644;SDS011;19986;48.190;16.366;2023-05-08T07:33:58;42.65;;;40.25;;
33644;SDS011;19986;48.190;16.366;2023-05-08T07:36:25;43.00;;;40.80;;
33644;SDS011;19986;48.190;16.366;2023-05-08T07:38:50;41.33;;;38.97;;
33644;SDS011;19986;48.190;16.366;2023-05-08T07:41:16;40.65;;;38.45;;
33644;SDS011;19986;48.190;16.366;2023-05-08T07:43:42;42.78;;;40.47;;
33644;SDS011;19986;48.190;16.366;2023-05-08T07:46:14;40.28;;;37.97;;
33644;SDS011;19986;48.190;16.366;2023-05-08T07:48:41;43.90;;;41.42;;
33644;SDS011;19986;48.190;16.366;2023-05-08T07:51:07;42.08;;;39.85;;
33644;SDS011;19986;48.190;16.366;2023-05-08T07:53:36;39.92;;;37.72;;
33644;SDS011;19986;48.190;16.366;2023-05-08T07:56:01;41.22;;;39.08;;
33644;SDS011;19986;48.190;16.366;2023-05-08T08:01:12;39.78;;;37.67;;
33644;SDS011;19986;48.190;16.366;2023-05-08T08:03:38;40.05;;;37.95;;
33644;SDS011;19986;48.190;16.366;2023-05-08T08:06:05;39.95;;;37.85;;
33644;SDS011;19986;48.190;16.366;2023-05-08T08:08:34;42.25;;;40.00;;
33644;SDS011;19986;48.190;16.366;2023-05-08T08:11:03;42.05;;;39.95;;
33644;SDS011;19986;48.190;16.366;2023-05-08T08:13:30;42.20;;;39.90;;
33644;SDS011;19986;48.190;16.366;2023-05-08T08:15:57;41.92;;;39.63;;
33644;SDS011;19986;48.190;16.366;2023-05-08T08:18:23;40.38;;;38.28;;
33644;SDS011;19986;48.190;16.366;2023-05-08T08:20:49;40.75;;;38.20;;
33644;SDS011;19986;48.190;16.366;2023-05-08T08:23:15;37.78;;;35.67;;
33644;SDS011;19986;48.190;16.366;2023-05-08T08:25:41;39.88;;;37.67;;
33644;SDS011;19986;48.190;16.366;2023-05-08T08:28:07;38.95;;;36.95;;
33644;SDS011;19986;48.190;16.366;2023-05-08T08:30:34;38.53;;;36.53;;
33644;SDS011;19986;48.190;16.366;2023-05-08T08:32:59;39.33;;;37.17;;
33644;SDS011;19986;48.190;16.366;2023-05-08T08:35:27;39.63;;;37.53;;
33644;SDS011;19986;48.190;16.366;2023-05-08T08:37:55;40.75;;;38.63;;
33644;SDS011;19986;48.190;16.366;2023-05-08T08:40:21;39.25;;;37.10;;
33644;SDS011;19986;48.190;16.366;2023-05-08T08:42:47;38.00;;;36.10;;
33644;SDS011;19986;48.190;16.366;2023-05-08T08:45:13;38.05;;;35.97;;
33644;SDS011;19986;48.190;16.366;2023-05-08T08:47:39;39.17;;;37.17;;
33644;SDS011;19986;48.190;16.366;2023-05-08T08:50:09;38.63;;;36.53;;
33644;SDS011;19986;48.190;16.366;2023-05-08T08:55:21;38.70;;;36.63;;
33644;SDS011;19986;48.190;16.366;2023-05-08T09:00:57;40.50;;;38.40;;
33644;SDS011;19986;48.190;16.366;2023-05-08T09:03:25;38.28;;;36.22;;
33644;SDS011;19986;48.190;16.366;2023-05-08T09:05:51;38.65;;;36.65;;
33644;SDS011;19986;48.190;16.366;2023-05-08T09:08:18;38.42;;;36.38;;
33644;SDS011;19986;48.190;16.366;2023-05-08T09:10:45;39.92;;;37.72;;
33644;SDS011;19986;48.190;16.366;2023-05-08T09:13:11;40.65;;;38.55;;
33644;SDS011;19986;48.190;16.366;2023-05-08T09:15:37;39.92;;;37.63;;
33644;SDS011;19986;48.190;16.366;2023-05-08T09:18:02;39.63;;;37.53;;
33644;SDS011;19986;48.190;16.366;2023-05-08T09:20:28;40.42;;;38.33;;
33644;SDS011;19986;48.190;16.366;2023-05-08T09:22:55;40.63;;;38.53;;
33644;SDS011;19986;48.190;16.366;2023-05-08T09:25:22;38.25;;;36.05;;
33644;SDS011;19986;48.190;16.366;2023-05-08T09:27:47;39.25;;;37.25;;
33644;SDS011;19986;48.190;16.366;2023-05-08T09:30:13;38.78;;;36.75;;
33644;SDS011;19986;48.190;16.366;2023-05-08T09:32:40;40.58;;;38.38;;
33644;SDS011;19986;48.190;16.366;2023-05-08T09:35:08;39.45;;;37.45;;
33644;SDS011;19986;48.190;16.366;2023-05-08T09:37:41;37.97;;;36.03;;
33644;SDS011;19986;48.190;16.366;2023-05-08T09:40:28;37.95;;;35.97;;
33644;SDS011;19986;48.190;16.366;2023-05-08T09:42:53;39.10;;;37.00;;
33644;SDS011;19986;48.190;16.366;2023-05-08T09:45:29;38.72;;;36.63;;
33644;SDS011;19986;48.190;16.366;2023-05-08T09:47:56;34.63;;;32.63;;
33644;SDS011;19986;48.190;16.366;2023-05-08T09:50:22;35.78;;;33.97;;
33644;SDS011;19986;48.190;16.366;2023-05-08T09:52:49;36.42;;;34.63;;
33644;SDS011;19986;48.190;16.366;2023-05-08T09:55:16;34.70;;;32.90;;
33644;SDS011;19986;48.190;16.366;2023-05-08T09:57:55;34.63;;;32.72;;
33644;SDS011;19986;48.190;16.366;2023-05-08T10:00:24;36.28;;;34.17;;
33644;SDS011;19986;48.190;16.366;2023-05-08T10:05:24;35.92;;;33.72;;
33644;SDS011;19986;48.190;16.366;2023-05-08T10:07:49;34.15;;;32.40;;
33644;SDS011;19986;48.190;16.366;2023-05-08T10:10:21;33.58;;;31.90;;
33644;SDS011;19986;48.190;16.366;2023-05-08T10:12:50;33.65;;;31.75;;
33644;SDS011;19986;48.190;16.366;2023-05-08T10:15:18;34.58;;;32.88;;
33644;SDS011;19986;48.190;16.366;2023-05-08T10:17:50;34.90;;;33.10;;
33644;SDS011;19986;48.190;16.366;2023-05-08T10:20:23;35.90;;;34.10;;
33644;SDS011;19986;48.190;16.366;2023-05-08T10:22:52;33.03;;;31.42;;
33644;SDS011;19986;48.190;16.366;2023-05-08T10:25:20;35.47;;;33.58;;
33644;SDS011;19986;48.190;16.366;2023-05-08T10:27:53;33.53;;;31.63;;
33644;SDS011;19986;48.190;16.366;2023-05-08T10:30:24;33.97;;;32.25;;
33644;SDS011;19986;48.190;16.366;2023-05-08T10:32:51;35.75;;;33.78;;
33644;SDS011;19986;48.190;16.366;2023-05-08T10:35:22;34.20;;;32.60;;
33644;SDS011;19986;48.190;16.366;2023-05-08T10:37:49;33.67;;;32.00;;
33644;SDS011;19986;48.190;16.366;2023-05-08T10:40:16;32.60;;;30.95;;
33644;SDS011;19986;48.190;16.366;2023-05-08T10:42:45;34.08;;;32.20;;
33644;SDS011;19986;48.190;16.366;2023-05-08T10:45:12;34.22;;;32.55;;
33644;SDS011;19986;48.190;16.366;2023-05-08T10:50:18;34.47;;;32.67;;
33644;SDS011;19986;48.190;16.366;2023-05-08T10:55:36;34.25;;;32.60;;
33644;SDS011;19986;48.190;16.366;2023-05-08T10:58:04;34.30;;;32.60;;
33644;SDS011;19986;48.190;16.366;2023-05-08T11:00:31;34.47;;;32.60;;
33644;SDS011;19986;48.190;16.366;2023-05-08T11:03:17;32.65;;;31.05;;
33644;SDS011;19986;48.190;16.366;2023-05-08T11:05:45;31.88;;;29.88;;
33644;SDS011;19986;48.190;16.366;2023-05-08T11:08:22;33.53;;;31.83;;
33644;SDS011;19986;48.190;16.366;2023-05-08T11:10:59;33.42;;;31.63;;
33644;SDS011;19986;48.190;16.366;2023-05-08T11:16:00;32.88;;;31.17;;
33644;SDS011;19986;48.190;16.366;2023-05-08T11:18:27;33.30;;;31.50;;
33644;SDS011;19986;48.190;16.366;2023-05-08T11:23:24;33.65;;;31.95;;
33644;SDS011;19986;48.190;16.366;2023-05-08T11:26:05;32.50;;;30.90;;
33644;SDS011;19986;48.190;16.366;2023-05-08T11:31:18;34.08;;;32.38;;
33644;SDS011;19986;48.190;16.366;2023-05-08T11:33:45;32.78;;;31.17;;
33644;SDS011;19986;48.190;16.366;2023-05-08T11:36:12;33.70;;;32.00;;
33644;SDS011;19986;48.190;16.366;2023-05-08T11:39:04;34.35;;;32.45;;
33644;SDS011;19986;48.190;16.366;2023-05-08T11:41:37;34.65;;;32.38;;
33644;SDS011;19986;48.190;16.366;2023-05-08T11:49:02;34.83;;;33.03;;
33644;SDS011;19986;48.190;16.366;2023-05-08T11:51:29;34.83;;;33.03;;
33644;SDS011;19986;48.190;16.366;2023-05-08T11:53:56;36.13;;;34.08;;
33644;SDS011;19986;48.190;16.366;2023-05-08T11:56:25;34.97;;;33.05;;
33644;SDS011;19986;48.190;16.366;2023-05-08T11:59:02;35.33;;;33.55;;
33644;SDS011;19986;48.190;16.366;2023-05-08T12:01:29;33.17;;;31.33;;
33644;SDS011;19986;48.190;16.366;2023-05-08T12:04:00;33.67;;;32.08;;
33644;SDS011;19986;48.190;16.366;2023-05-08T12:06:30;35.30;;;33.17;;
33644;SDS011;19986;48.190;16.366;2023-05-08T12:08:58;35.00;;;33.17;;
33644;SDS011;19986;48.190;16.366;2023-05-08T12:11:24;33.70;;;32.00;;
33644;SDS011;19986;48.190;16.366;2023-05-08T12:13:51;36.83;;;34.88;;
33644;SDS011;19986;48.190;16.366;2023-05-08T12:16:21;35.47;;;33.78;;
33644;SDS011;19986;48.190;16.366;2023-05-08T12:18:49;35.85;;;34.05;;
33644;SDS011;19986;48.190;16.366;2023-05-08T12:21:15;35.80;;;34.00;;
33644;SDS011;19986;48.190;16.366;2023-05-08T12:23:41;35.97;;;33.92;;
33644;SDS011;19986;48.190;16.366;2023-05-08T12:26:08;34.25;;;32.30;;
33644;SDS011;19986;48.190;16.366;2023-05-08T12:28:34;36.30;;;34.40;;
33644;SDS011;19986;48.190;16.366;2023-05-08T12:31:00;33.97;;;31.98;;
33644;SDS011;19986;48.190;16.366;2023-05-08T12:33:26;36.60;;;34.80;;
33644;SDS011;19986;48.190;16.366;2023-05-08T12:35:54;37.40;;;35.15;;
33644;SDS011;19986;48.190;16.366;2023-05-08T12:38:26;37.03;;;34.88;;
33644;SDS011;19986;48.190;16.366;2023-05-08T12:40:52;34.88;;;33.20;;
33644;SDS011;19986;48.190;16.366;2023-05-08T12:43:31;35.75;;;33.92;;
33644;SDS011;19986;48.190;16.366;2023-05-08T12:45:59;33.83;;;32.15;;
33644;SDS011;19986;48.190;16.366;2023-05-08T12:48:26;34.95;;;33.15;;
33644;SDS011;19986;48.190;16.366;2023-05-08T12:50:52;35.47;;;33.70;;
33644;SDS011;19986;48.190;16.366;2023-05-08T12:53:19;36.78;;;34.38;;
33644;SDS011;19986;48.190;16.366;2023-05-08T12:55:53;36.25;;;34.45;;
33644;SDS011;19986;48.190;16.366;2023-05-08T12:58:23;34.28;;;32.38;;
33644;SDS011;19986;48.190;16.366;2023-05-08T13:01:02;36.10;;;34.30;;
33644;SDS011;19986;48.190;16.366;2023-05-08T13:03:39;33.58;;;31.98;;
33644;SDS011;19986;48.190;16.366;2023-05-08T13:06:05;35.92;;;34.13;;
33644;SDS011;19986;48.190;16.366;2023-05-08T13:08:32;36.72;;;34.90;;
33644;SDS011;19986;48.190;16.366;2023-05-08T13:10:58;36.13;;;34.33;;
33644;SDS011;19986;48.190;16.366;2023-05-08T13:13:29;34.30;;;32.55;;
33644;SDS011;19986;48.190;16.366;2023-05-08T13:15:56;37.45;;;34.92;;
33644;SDS011;19986;48.190;16.366;2023-05-08T13:18:24;35.28;;;33.58;;
33644;SDS011;19986;48.190;16.366;2023-05-08T13:20:51;36.83;;;34.92;;
33644;SDS011;19986;48.190;16.366;2023-05-08T13:23:18;36.58;;;34.67;;
33644;SDS011;19986;48.190;16.366;2023-05-08T13:25:44;37.40;;;35.60;;
33644;SDS011;19986;48.190;16.366;2023-05-08T13:28:10;38.22;;;36.28;;
33644;SDS011;19986;48.190;16.366;2023-05-08T13:30:36;36.53;;;34.53;;
33644;SDS011;19986;48.190;16.366;2023-05-08T13:33:03;35.70;;;33.60;;
33644;SDS011;19986;48.190;16.366;2023-05-08T13:35:29;35.63;;;33.83;;
33644;SDS011;19986;48.190;16.366;2023-05-08T13:37:56;36.55;;;34.65;;
33644;SDS011;19986;48.190;16.366;2023-05-08T13:40:23;36.15;;;34.25;;
33644;SDS011;19986;48.190;16.366;2023-05-08T13:42:49;37.30;;;35.40;;
33644;SDS011;19986;48.190;16.366;2023-05-08T13:45:15;39.10;;;37.05;;
33644;SDS011;19986;48.190;16.366;2023-05-08T13:47:45;36.55;;;34.65;;
33644;SDS011;19986;48.190;16.366;2023-05-08T13:50:12;36.25;;;34.45;;
33644;SDS011;19986;48.190;16.366;2023-05-08T13:52:40;35.97;;;34.13;;
33644;SDS011;19986;48.190;16.366;2023-05-08T13:55:07;36.65;;;34.67;;
33644;SDS011;19986;48.190;16.366;2023-05-08T13:57:35;36.85;;;34.90;;
33644;SDS011;19986;48.190;16.366;2023-05-08T14:00:01;34.67;;;32.97;;
33644;SDS011;19986;48.190;16.366;2023-05-08T14:02:28;36.60;;;34.60;;
33644;SDS011;19986;48.190;16.366;2023-05-08T14:04:54;35.78;;;33.85;;
33644;SDS011;19986;48.190;16.366;2023-05-08T14:07:20;36.03;;;34.33;;
33644;SDS011;19986;48.190;16.366;2023-05-08T14:09:46;36.33;;;34.38;;
33644;SDS011;19986;48.190;16.366;2023-05-08T14:12:12;35.67;;;33.95;;
33644;SDS011;19986;48.190;16.366;2023-05-08T14:14:38;36.88;;;34.97;;
33644;SDS011;19986;48.190;16.366;2023-05-08T14:17:04;34.38;;;32.42;;
33644;SDS011;19986;48.190;16.366;2023-05-08T14:19:30;36.30;;;34.50;;
33644;SDS011;19986;48.190;16.366;2023-05-08T14:21:56;36.78;;;34.72;;
33644;SDS011;19986;48.190;16.366;2023-05-08T14:24:23;36.30;;;34.40;;
33644;SDS011;19986;48.190;16.366;2023-05-08T14:26:49;36.78;;;34.85;;
33644;SDS011;19986;48.190;16.366;2023-05-08T14:29:15;36.00;;;34.13;;
33644;SDS011;19986;48.190;16.366;2023-05-08T14:31:43;36.15;;;34.35;;
33644;SDS011;19986;48.190;16.366;2023-05-08T14:34:09;35.70;;;34.00;;
33644;SDS011;19986;48.190;16.366;2023-05-08T14:36:38;37.75;;;34.90;;
33644;SDS011;19986;48.190;16.366;2023-05-08T14:39:04;34.60;;;32.17;;
33644;SDS011;19986;48.190;16.366;2023-05-08T14:41:30;33.85;;;32.05;;
33644;SDS011;19986;48.190;16.366;2023-05-08T14:43:56;35.33;;;33.65;;
33644;SDS011;19986;48.190;16.366;2023-05-08T14:46:22;35.83;;;34.03;;
33644;SDS011;19986;48.190;16.366;2023-05-08T14:48:48;35.33;;;33.63;;
33644;SDS011;19986;48.190;16.366;2023-05-08T14:51:15;36.55;;;34.75;;
33644;SDS011;19986;48.190;16.366;2023-05-08T14:53:40;36.78;;;35.08;;
33644;SDS011;19986;48.190;16.366;2023-05-08T14:56:06;35.22;;;33.53;;
33644;SDS011;19986;48.190;16.366;2023-05-08T14:58:32;35.53;;;33.67;;
33644;SDS011;19986;48.190;16.366;2023-05-08T15:00:58;34.92;;;32.95;;
33644;SDS011;19986;48.190;16.366;2023-05-08T15:03:24;34.83;;;32.97;;
33644;SDS011;19986;48.190;16.366;2023-05-08T15:05:50;35.95;;;34.03;;
33644;SDS011;19986;48.190;16.366;2023-05-08T15:08:16;34.40;;;32.45;;
33644;SDS011;19986;48.190;16.366;2023-05-08T15:10:42;34.65;;;33.05;;
33644;SDS011;19986;48.190;16.366;2023-05-08T15:13:08;36.70;;;34.90;;
33644;SDS011;19986;48.190;16.366;2023-05-08T15:15:35;34.35;;;32.75;;
33644;SDS011;19986;48.190;16.366;2023-05-08T15:18:00;34.67;;;32.97;;
33644;SDS011;19986;48.190;16.366;2023-05-08T15:20:27;36.78;;;34.95;;